Portada
METAR-TAF:

METAR-TAF

Aeropuertos :

Béziers, Francia

latitud: 43-19N, longitud: 003-21E, altitud: 17 m

Observación

El informe se hizo hace 23 minutos, a las 18:00 UTC
Viento 19 kt del oeste-noroeste
Temperatura 23°C
Humedad 47%
Presión
Visibilidad 10 km o más
sin nubes por debajo de 1500 m y sin presencia de cumulonimbus.

METAR: LFMU 261800Z AUTO 30019KT CAVOK 23/11 Q//// NOSIG

Hora: 20:23 (18:23 UTC)

Pronóstico

El informe se hizo hace 4 horas y 23 minutos, a las 14:00 UTC
Pronóstico válido del 26 a las 15 UTC al 27 a las 15 UTC
Viento 15 kt del noroeste con ráfagas de 25 kt
Visibilidad 10 km o más
sin nubes por debajo de 1500 m y sin presencia de cumulonimbus.
Evolucionando progresivamente
del 26 a las 18 UTC al 26 a las 20 UTC
Viento 10 kt del oeste-noroeste
Temporalmente
del 27 a las 12 UTC al 27 a las 15 UTC
Viento 15 kt del noroeste con ráfagas de 25 kt

TAF: LFMU 261400Z 2615/2715 31015G25KT CAVOK BECMG 2618/2620 29010KT TEMPO 2712/2715 32015G25KT

Observaciones y pronósticos meteorológicos de más de 4000 aeropuertos (mensajes METAR y TAF).

Los puntos amarillos y rojos representan las estaciones disponibles.

Ponga el ratón en el punto deseado para ver el nombre de la estación.

Haga clic para ver las observaciones y los pronósticos meteorológicos.

Para cambiar el mapa : haga clic en los botones verdes con una cruz de color negro para hacer un zoom, en el botón verde con un guión para alejar o en las flechas verdes para mapas adyacentes.


METAR-TAF: